Flight Track Log - Related Links

Times and Time Zones

All times are in EDT time to prevent confusion due to time zone crossing. See the N92877 flight status page for this flight to view local times or setup timezone preferences in your user account.

Time Position Orientation Groundspeed Altitude Reporting Facility
EDT Latitude Longitude Course Direction KTS MPH feet Rate Location/Type
Sun 02:15:49 PM 41.5686 -81.4794 81° East 83 96 900  Level Cleveland Center
Sun 02:16:31 PM 41.5708 -81.4603 81° East 87 100 1,400 699 Climbing Cleveland Center
Sun 02:17:32 PM 41.5439 -81.4569 175° South 115 132 2,100 639 Climbing Cleveland Center
Sun 02:18:33 PM 41.5106 -81.4594 183° South 113 130 2,700 545 Climbing Cleveland Center
Sun 02:19:33 PM 41.4772 -81.4617 183° South 120 138 3,200 545 Climbing Cleveland Center
Sun 02:20:34 PM 41.4458 -81.4750 198° South 130 150 3,800 590 Climbing Cleveland Center
Sun 02:21:35 PM 41.4144 -81.4914 201° Southwest 126 145 4,400 639 Climbing Cleveland Center
Sun 02:22:36 PM 41.3831 -81.5103 204° Southwest 125 144 5,100 565 Climbing Cleveland Center
Sun 02:24:25 PM 41.3278 -81.5317 196° South 122 140 6,000 526 Climbing Indianapolis Center
Sun 02:25:27 PM 41.2942 -81.5478 200° South 124 143 6,600 581 Climbing Indianapolis Center
Sun 02:26:29 PM 41.2544 -81.5647 198° South 126 145 7,200 537 Climbing Indianapolis Center
Sun 02:27:30 PM 41.2214 -81.5825 202° Southwest 126 145 7,700 341 Climbing Indianapolis Center
Sun 02:28:32 PM 41.1864 -81.6028 204° Southwest 133 153 7,900 97 Climbing Indianapolis Center
Sun 02:29:34 PM 41.1458 -81.6244 202° Southwest 146 168 7,900  Level Indianapolis Center
Sun 02:30:36 PM 41.1056 -81.6489 205° Southwest 156 180 7,900  Level Indianapolis Center
Sun 02:31:37 PM 41.0639 -81.6728 203° Southwest 159 183 7,900  Level Indianapolis Center
Sun 02:32:39 PM 41.0239 -81.6967 204° Southwest 158 182 7,900  Level Indianapolis Center
Sun 02:33:41 PM 40.9822 -81.7197 203° Southwest 159 183 7,900  Level Indianapolis Center
Sun 02:34:43 PM 40.9392 -81.7369 197° South 160 184 7,900  Level Indianapolis Center
Sun 02:35:45 PM 40.8967 -81.7542 197° South 158 182 7,900  Level Indianapolis Center
Sun 02:36:46 PM 40.8536 -81.7722 198° South 160 184 7,900  Level Indianapolis Center
Sun 02:37:48 PM 40.8042 -81.7942 199° South 159 183 7,900  Level Indianapolis Center
Sun 02:38:50 PM 40.7617 -81.8128 198° South 160 184 7,900  Level Indianapolis Center
Sun 02:39:52 PM 40.7186 -81.8317 198° South 160 184 7,900  Level Indianapolis Center
Sun 02:40:54 PM 40.6758 -81.8508 199° South 161 185 7,900  Level Indianapolis Center
Sun 02:41:56 PM 40.6325 -81.8694 198° South 161 185 7,900  Level Indianapolis Center
Sun 02:42:57 PM 40.5900 -81.8867 197° South 161 185 7,900  Level Indianapolis Center
Sun 02:43:59 PM 40.5472 -81.9056 199° South 161 185 7,900  Level Indianapolis Center
Sun 02:45:01 PM 40.5050 -81.9219 196° South 157 181 7,900  Level Indianapolis Center
Sun 02:46:03 PM 40.4622 -81.9392 197° South 160 184 7,900  Level Indianapolis Center
Sun 02:47:05 PM 40.4111 -81.9600 197° South 162 186 7,900  Level Indianapolis Center
Sun 02:48:06 PM 40.3675 -81.9772 197° South 161 185 7,900  Level Indianapolis Center
Sun 02:49:08 PM 40.3242 -81.9911 194° South 159 183 7,900  Level Indianapolis Center
Sun 02:50:10 PM 40.2811 -82.0033 192° South 156 180 7,900  Level Indianapolis Center
Sun 02:51:12 PM 40.2389 -82.0186 195° South 157 181 7,900  Level Indianapolis Center
Sun 02:52:14 PM 40.1961 -82.0339 195° South 158 182 7,900  Level Indianapolis Center
Sun 02:53:02 PM 40.1597 -82.0514 200° South 162 186 7,900  Level Indianapolis Center
Sun 02:53:15 PM 40.1536 -82.0519 184° South 160 184 7,900  Level Indianapolis Center
Sun 02:53:27 PM 40.1444 -82.0575 205° Southwest 160 184 7,900  Level Indianapolis Center
Sun 02:54:17 PM 40.1103 -82.0689 194° South 162 186 7,900  Level Indianapolis Center
Sun 02:54:28 PM 40.0967 -82.0775 206° Southwest 162 186 7,900  Level Indianapolis Center
Sun 02:55:19 PM 40.0681 -82.0875 195° South 160 184 7,900  Level Indianapolis Center
Sun 02:55:28 PM 40.0553 -82.0933 199° South 160 184 7,900  Level Indianapolis Center
Sun 02:56:21 PM 40.0175 -82.1083 197° South 159 183 7,900  Level Indianapolis Center
Sun 02:56:29 PM 40.0136 -82.1144 230° Southwest 162 186 7,900  Level Indianapolis Center
Sun 02:57:23 PM 39.9761 -82.1286 196° South 159 183 7,900  Level Indianapolis Center
Sun 02:57:24 PM 39.9744 -82.1306 222° Southwest 160 184 7,900  Level Indianapolis Center
Sun 02:58:25 PM 39.9331 -82.1489 199° South 158 182 7,900  Level Indianapolis Center
Sun 02:59:26 PM 39.8914 -82.1700 201° Southwest 158 182 7,900  Level Indianapolis Center
Sun 03:00:33 PM 39.8433 -82.1900 198° South 156 180 7,900  Level Indianapolis Center
Sun 03:01:30 PM 39.8122 -82.2042 199° South 154 177 7,900  Level Indianapolis Center
Sun 03:01:34 PM 39.8039 -82.2086 202° Southwest 153 176 7,900  Level Indianapolis Center
Sun 03:02:32 PM 39.7700 -82.2186 193° South 157 181 7,900  Level Indianapolis Center
Sun 03:02:35 PM 39.7608 -82.2214 193° South 161 185 7,900  Level Indianapolis Center
Sun 03:03:33 PM 39.7194 -82.2361 195° South 157 181 7,900  Level Indianapolis Center
Sun 03:04:35 PM 39.6786 -82.2556 200° South 157 181 7,900  Level Indianapolis Center
Sun 03:05:37 PM 39.6378 -82.2750 200° South 157 181 7,900 48 Level Indianapolis Center
Sun 03:06:39 PM 39.5953 -82.2919 197° South 159 183 8,000  Climbing Indianapolis Center
Sun 03:07:41 PM 39.5547 -82.3111 200° South 156 180 7,900 -48 Descending Indianapolis Center
Sun 03:08:43 PM 39.5133 -82.3292 199° South 155 178 7,900  Level Indianapolis Center
Sun 03:09:44 PM 39.4722 -82.3478 199° South 156 180 7,900  Level Indianapolis Center
Sun 03:10:46 PM 39.4261 -82.3694 200° South 154 177 7,900  Level Indianapolis Center
Sun 03:11:48 PM 39.3844 -82.3878 199° South 156 180 7,900 48 Level Indianapolis Center
Sun 03:12:50 PM 39.3481 -82.4100 205° Southwest 150 173 8,000 48 Climbing Indianapolis Center
Sun 03:13:52 PM 39.3119 -82.4347 208° Southwest 147 169 8,000  Level Indianapolis Center
Sun 03:14:54 PM 39.2672 -82.4658 208° Southwest 150 173 8,000  Level Indianapolis Center
Sun 03:15:56 PM 39.2308 -82.4800 197° South 156 180 8,000  Level Indianapolis Center
Sun 03:16:58 PM 39.1811 -82.4978 195° South 156 180 8,000 -48 Level Indianapolis Center
Sun 03:18:00 PM 39.1428 -82.5147 199° South 155 178 7,900 -48 Descending Indianapolis Center
Sun 03:19:02 PM 39.1044 -82.5392 206° Southwest 154 177 7,900 48 Level Indianapolis Center
Sun 03:20:04 PM 39.0653 -82.5631 205° Southwest 155 178 8,000 48 Climbing Indianapolis Center
Sun 03:21:06 PM 39.0181 -82.5928 206° Southwest 155 178 8,000  Level Indianapolis Center
Sun 03:22:08 PM 38.9781 -82.6158 204° Southwest 159 183 8,000 -48 Level Indianapolis Center
Sun 03:23:10 PM 38.9353 -82.6306 195° South 159 183 7,900  Descending Indianapolis Center
Sun 03:24:13 PM 38.8922 -82.6467 196° South 160 184 8,000  Climbing Indianapolis Center
Sun 03:25:14 PM 38.8486 -82.6650 198° South 163 188 7,900  Descending Indianapolis Center
Sun 03:26:17 PM 38.8072 -82.6800 196° South 157 181 8,000 48 Climbing Indianapolis Center
Sun 03:27:19 PM 38.7556 -82.6989 196° South 159 183 8,000  Level Indianapolis Center
Sun 03:28:21 PM 38.7147 -82.7197 202° Southwest 158 182 8,000  Level Indianapolis Center
Sun 03:29:23 PM 38.6728 -82.7386 199° South 159 183 8,000  Level Indianapolis Center
Sun 03:30:25 PM 38.6281 -82.7517 193° South 162 186 8,000 -48 Level Indianapolis Center
Sun 03:31:27 PM 38.5850 -82.7639 193° South 160 184 7,900  Descending Indianapolis Center
Sun 03:32:29 PM 38.5378 -82.7958 208° Southwest 162 186 8,000  Climbing Indianapolis Center
Sun 03:33:31 PM 38.4947 -82.8111 196° South 162 186 7,900 -48 Descending Indianapolis Center
Sun 03:34:33 PM 38.4519 -82.8325 201° Southwest 163 188 7,900 48 Level Indianapolis Center
Sun 03:35:35 PM 38.4081 -82.8478 195° South 163 188 8,000  Climbing Indianapolis Center
Sun 03:36:37 PM 38.3639 -82.8628 195° South 164 189 7,900  Descending Indianapolis Center
Sun 03:37:39 PM 38.3214 -82.8775 195° South 159 183 8,000 48 Climbing Indianapolis Center
Sun 03:38:41 PM 38.2711 -82.9011 200° South 163 188 8,000 -48 Level Indianapolis Center
Sun 03:39:43 PM 38.2294 -82.9222 202° Southwest 161 185 7,900 -48 Descending Indianapolis Center
Sun 03:40:45 PM 38.1878 -82.9447 203° Southwest 163 188 7,900 48 Level Indianapolis Center
Sun 03:41:47 PM 38.1461 -82.9636 200° South 160 184 8,000 48 Climbing Indianapolis Center
Sun 03:42:49 PM 38.1036 -82.9833 200° South 161 185 8,000  Level Indianapolis Center
Sun 03:43:51 PM 38.0550 -83.0083 202° Southwest 161 185 8,000 -48 Level Indianapolis Center
Sun 03:44:53 PM 38.0128 -83.0272 199° South 161 185 7,900  Descending Indianapolis Center
Sun 03:45:56 PM 37.9694 -83.0464 199° South 163 188 8,000 48 Climbing Indianapolis Center
Sun 03:46:58 PM 37.9275 -83.0656 200° South 162 186 8,000  Level Indianapolis Center
Sun 03:48:00 PM 37.8850 -83.0839 199° South 161 185 8,000  Level Indianapolis Center
Sun 03:49:02 PM 37.8414 -83.1025 199° South 163 188 8,000  Level Indianapolis Center
Sun 03:50:04 PM 37.7917 -83.1231 198° South 161 185 8,000  Level Indianapolis Center
Sun 03:51:06 PM 37.7483 -83.1419 199° South 163 188 8,000  Level Indianapolis Center
Sun 03:52:08 PM 37.7061 -83.1606 199° South 162 186 8,000  Level Indianapolis Center
Sun 03:53:10 PM 37.6631 -83.1781 198° South 162 186 8,000  Level Indianapolis Center
Sun 03:54:12 PM 37.6186 -83.1967 198° South 166 191 8,000  Level Indianapolis Center
Sun 03:55:14 PM 37.5678 -83.2192 199° South 166 191 8,000  Level Indianapolis Center
Sun 03:56:16 PM 37.5244 -83.2411 202° Southwest 167 192 8,000  Level Indianapolis Center
Sun 03:57:18 PM 37.4853 -83.2725 212° Southwest 165 190 8,000  Level Indianapolis Center
Sun 03:58:20 PM 37.4458 -83.2986 208° Southwest 163 188 8,000  Level Indianapolis Center
Sun 03:59:22 PM 37.4006 -83.3119 193° South 166 191 8,000  Level Indianapolis Center
Sun 04:00:24 PM 37.3497 -83.3333 198° South 165 190 8,000  Level Indianapolis Center
Sun 04:01:26 PM 37.3064 -83.3519 199° South 165 190 8,000  Level Indianapolis Center
Sun 04:02:28 PM 37.2628 -83.3692 197° South 164 189 8,000  Level Indianapolis Center
Sun 04:03:30 PM 37.2197 -83.3864 198° South 163 188 8,000  Level Indianapolis Center
Sun 04:04:32 PM 37.1758 -83.4044 198° South 164 189 8,000  Level Indianapolis Center
Sun 04:05:34 PM 37.1325 -83.4197 196° South 163 188 8,000  Level Indianapolis Center
Sun 04:06:36 PM 37.0806 -83.4403 198° South 167 192 8,000  Level Indianapolis Center
Sun 04:07:38 PM 37.0350 -83.4558 195° South 169 194 8,000  Level Indianapolis Center
Sun 04:08:40 PM 36.9917 -83.4731 198° South 165 190 8,000 -48 Level Indianapolis Center
Sun 04:09:42 PM 36.9481 -83.4889 196° South 164 189 7,900  Descending Indianapolis Center
Sun 04:10:43 PM 36.9042 -83.5056 197° South 164 189 8,000 49 Climbing Indianapolis Center
Sun 04:11:45 PM 36.8528 -83.5239 196° South 164 189 8,000  Level Indianapolis Center
Sun 04:12:47 PM 36.8092 -83.5408 197° South 164 189 8,000  Level Indianapolis Center
Sun 04:13:49 PM 36.7658 -83.5567 196° South 163 188 8,000  Level Indianapolis Center
Sun 04:14:51 PM 36.7222 -83.5728 196° South 163 188 8,000  Level Indianapolis Center
Sun 04:15:53 PM 36.6783 -83.5886 196° South 163 188 8,000  Level Indianapolis Center
Sun 04:16:55 PM 36.6281 -83.6089 198° South 163 188 8,000 -48 Level Indianapolis Center
Sun 04:17:57 PM 36.5828 -83.6236 195° South 166 191 7,900  Descending Indianapolis Center
Sun 04:18:59 PM 36.5394 -83.6408 198° South 164 189 8,000 48 Climbing Indianapolis Center
Sun 04:20:01 PM 36.4956 -83.6567 196° South 163 188 8,000  Level Indianapolis Center
Sun 04:21:03 PM 36.4503 -83.6731 196° South 167 192 8,000  Level Indianapolis Center
Sun 04:22:05 PM 36.4086 -83.6906 199° South 163 188 8,000  Level Indianapolis Center
Sun 04:23:07 PM 36.3653 -83.7058 196° South 161 185 8,000  Level Indianapolis Center
Sun 04:24:09 PM 36.3122 -83.7258 197° South 165 190 8,000  Level Indianapolis Center
Sun 04:25:11 PM 36.2672 -83.7406 195° South 166 191 8,000 -36 Level Indianapolis Center
Sun 04:26:57 PM 36.1894 -83.7711 198° South 166 191 7,900  Descending Atlanta Center
Sun 04:27:57 PM 36.1456 -83.7867 196° South 166 191 8,000 50 Climbing Atlanta Center
Sun 04:28:57 PM 36.1061 -83.8047 200° South 166 191 8,000  Level Atlanta Center
Sun 04:29:57 PM 36.0622 -83.8203 196° South 166 191 8,000  Level Atlanta Center
Sun 04:30:57 PM 36.0228 -83.8358 198° South 166 191 8,000  Level Atlanta Center
Sun 04:32:00 PM 35.9795 -83.8526 197° South  Level FlightAware Approximate
Sun 04:39:00 PM 35.6808 -83.8895 181° South  Level FlightAware Approximate
Sun 04:40:00 PM 35.6376 -83.8906 181° South  Level FlightAware Approximate
Sun 04:41:00 PM 35.5943 -83.8919 181° South  Level FlightAware Approximate
Sun 04:42:00 PM 35.5511 -83.8931 181° South  Level FlightAware Approximate
Sun 04:42:33 PM 35.5117 -83.9061 181° South 176 203 8,000  Level Atlanta Center
Sun 04:43:00 PM 35.5079 -83.8942 181° South  Level FlightAware Approximate
Sun 04:43:33 PM 35.4658 -83.9086 183° South 176 203 8,000  Level Atlanta Center
Sun 04:44:00 PM 35.4647 -83.8954 181° South  Level FlightAware Approximate
Sun 04:44:33 PM 35.4178 -83.9089 180° South 176 203 8,000  Level Atlanta Center
Sun 04:45:00 PM 35.4215 -83.8967 181° South  Level FlightAware Approximate
Sun 04:45:33 PM 35.3739 -83.9114 183° South 176 203 8,000  Level Atlanta Center
Sun 04:46:00 PM 35.3783 -83.8978 181° South  Level FlightAware Approximate
Sun 04:46:33 PM 35.3261 -83.9114 180° South 176 203 8,000  Level Atlanta Center
Sun 04:47:33 PM 35.2842 -83.9142 183° South 176 203 8,000  Level Atlanta Center
Sun 04:48:33 PM 35.2383 -83.9142 180° South 171 197 8,000  Level Atlanta Center
Sun 04:49:33 PM 35.1925 -83.9167 183° South 171 197 8,000  Level Atlanta Center
Sun 04:50:33 PM 35.1467 -83.9194 183° South 171 197 8,000 -50 Level Atlanta Center
Sun 04:51:33 PM 35.1006 -83.9194 180° South 171 197 7,900 -50 Descending Atlanta Center
Sun 04:52:33 PM 35.0528 -83.9194 180° South 171 197 7,900 50 Level Atlanta Center
Sun 04:53:33 PM 35.0067 -83.9222 183° South 171 197 8,000 -50 Climbing Atlanta Center
Sun 04:54:33 PM 34.9608 -83.9222 180° South 171 197 7,800 -200 Descending Atlanta Center
Sun 04:55:33 PM 34.9128 -83.9222 180° South 171 197 7,600 -250 Descending Atlanta Center
Sun 04:56:33 PM 34.8647 -83.9247 182° South 177 204 7,300 -300 Descending Atlanta Center
Sun 04:57:33 PM 34.8147 -83.9225 178° South 177 204 7,000 -150 Descending Atlanta Center
Sun 04:58:33 PM 34.7689 -83.9225 180° South 177 204 7,000  Level Atlanta Center
Sun 04:59:33 PM 34.7231 -83.9225 180° South 177 204 7,000  Level Atlanta Center
Sun 05:00:33 PM 34.6750 -83.9225 180° South 177 204 7,000 -50 Level Atlanta Center
Sun 05:01:33 PM 34.6247 -83.9175 175° South 177 204 6,900 -50 Descending Atlanta Center
Sun 05:02:33 PM 34.5789 -83.9178 180° South 171 197 6,900  Level Atlanta Center
Sun 05:03:33 PM 34.5331 -83.9178 180° South 171 197 6,900 -50 Level Atlanta Center
Sun 05:04:33 PM 34.4914 -83.9178 180° South 171 197 6,800 -300 Descending Atlanta Center
Sun 05:05:33 PM 34.4411 -83.9178 180° South 177 204 6,300 -400 Descending Atlanta Center
Sun 05:06:33 PM 34.3953 -83.9331 195° South 177 204 6,000 -250 Descending Atlanta Center
Sun 05:07:33 PM 34.3494 -83.9508 198° South 183 211 5,800 -100 Descending Atlanta Center
Sun 05:08:33 PM 34.3078 -83.9658 197° South 168 193 5,800  Level Atlanta Center
Sun 05:09:33 PM 34.2722 -83.9936 213° Southwest 156 180 5,800  Level Atlanta Center
Sun 05:10:33 PM 34.2472 -84.0414 238° Southwest 146 168 5,800 -50 Level Atlanta Center
Sun 05:11:33 PM 34.2306 -84.0864 246° West 151 174 5,700 -250 Descending Atlanta Center
Sun 05:12:33 PM 34.2075 -84.1367 241° Southwest 162 186 5,300 -400 Descending Atlanta Center
Sun 05:13:33 PM 34.1867 -84.1869 243° Southwest 167 192 4,900 -387 Descending Atlanta Center
Sun 05:15:39 PM 34.1500 -84.2833 245° Southwest 161 185 4,100 -323 Descending Atlanta TRACON
Sun 05:16:39 PM 34.1333 -84.3333 248° West 153 176 3,900 -368 Descending Atlanta TRACON
Sun 05:17:33 PM 34.1000 -84.3667 220° Southwest 160 184 3,400 -474 Descending Atlanta TRACON
Sun 05:18:33 PM 34.0833 -84.4167 248° West 160 184 3,000 -381 Descending Atlanta TRACON
Sun 05:19:39 PM 34.0667 -84.4667 248° West 157 181 2,600 -250 Descending Atlanta TRACON
Sun 05:20:33 PM 34.0333 -84.5000 220° Southwest 156 180 2,500 -474 Descending Atlanta TRACON
Sun 05:21:33 PM 34.0167 -84.5500 248° West 153 176 1,700 -800 Descending Atlanta TRACON
Sun 05:23:00 PM 34.0000 -84.5833 270° West  Level FlightAware Approximate
Sun 05:30:00 PM 34.0132 -84.5971 270° West  Level Estimated
Sun 05:31:00 PM 34.0132 -84.5971 270° West  Level Estimated

Login

Don't have an account? Register now (free) for customized features, flight alerts, and more!